Time;durP1;ratioP1;P1;durP2;ratioP2;P2;SDS_P1;SDS_P2;PMS_P1;PMS_P2;Temp;Humidity;BMP_temperature;BMP_pressure;BME280_temperature;BME280_humidity;BME280_pressure;Samples;Min_cycle;Max_cycle;Signal;HPM_P1;HPM_P2
2022/11/20 00:00:40;;;;;;;0.50;0.40;;;-2.20;99.90;;;;;;5094132;28;20227;-79
2022/11/20 00:03:08;;;;;;;1.08;1.08;;;-2.20;99.90;;;;;;5098270;28;20285;-83
2022/11/20 00:05:35;;;;;;;0.50;0.50;;;-2.30;99.90;;;;;;5095652;28;20198;-84
2022/11/20 00:08:02;;;;;;;1.92;1.73;;;-2.40;99.90;;;;;;5097270;28;20191;-84
2022/11/20 00:10:29;;;;;;;0.50;0.40;;;-2.50;99.90;;;;;;5085895;28;20759;-82
2022/11/20 00:12:55;;;;;;;0.70;0.70;;;-2.50;99.90;;;;;;5086153;28;20220;-80
2022/11/20 00:15:22;;;;;;;0.50;0.40;;;-2.50;99.90;;;;;;5084084;28;20313;-83
2022/11/20 00:17:49;;;;;;;2.67;2.40;;;-2.40;99.90;;;;;;5085927;28;20257;-81
2022/11/20 00:20:17;;;;;;;1.05;1.05;;;-2.40;99.90;;;;;;5085755;28;20196;-82
2022/11/20 00:22:44;;;;;;;1.23;1.13;;;-2.40;99.90;;;;;;5085787;28;20517;-80
2022/11/20 00:25:11;;;;;;;7.47;7.10;;;-2.30;99.90;;;;;;5085074;28;20249;-83
2022/11/20 00:27:38;;;;;;;0.95;0.95;;;-2.30;99.90;;;;;;5085610;28;20178;-80
2022/11/20 00:30:06;;;;;;;1.23;1.23;;;-2.30;99.90;;;;;;5085078;28;20254;-82
2022/11/20 00:32:33;;;;;;;0.50;0.40;;;-2.30;99.90;;;;;;5085375;28;20214;-83
2022/11/20 00:35:00;;;;;;;0.60;0.60;;;-2.40;99.90;;;;;;5084119;28;20217;-82
2022/11/20 00:37:28;;;;;;;0.93;0.93;;;-2.40;99.90;;;;;;5085003;28;20281;-82
2022/11/20 00:39:55;;;;;;;0.50;0.50;;;-2.50;99.90;;;;;;5085408;28;20195;-81
2022/11/20 00:42:22;;;;;;;0.50;0.50;;;-2.50;99.90;;;;;;5085261;28;20193;-82
2022/11/20 00:44:48;;;;;;;0.50;0.50;;;-2.50;99.90;;;;;;5084333;28;20259;-82
2022/11/20 00:47:15;;;;;;;0.50;0.50;;;-2.60;99.90;;;;;;5084962;28;20195;-81
2022/11/20 00:49:42;;;;;;;12.73;11.88;;;-2.60;99.90;;;;;;5084920;28;20221;-81
2022/11/20 00:52:09;;;;;;;0.50;0.50;;;-2.70;99.90;;;;;;5084916;28;20196;-81
2022/11/20 00:54:37;;;;;;;1.35;1.20;;;-2.70;99.90;;;;;;5084499;28;20201;-83
2022/11/20 00:57:04;;;;;;;1.08;1.08;;;-2.80;99.90;;;;;;5084829;28;20213;-81
2022/11/20 00:59:31;;;;;;;0.60;0.57;;;-2.80;99.90;;;;;;5085353;28;20190;-82
2022/11/20 01:01:58;;;;;;;1.05;1.05;;;-2.80;99.90;;;;;;5084105;28;20280;-82
2022/11/20 01:04:24;;;;;;;0.50;0.50;;;-2.80;99.90;;;;;;5083913;28;20198;-83
2022/11/20 01:06:51;;;;;;;0.50;0.45;;;-2.80;99.90;;;;;;5084545;28;20284;-82
2022/11/20 01:09:18;;;;;;;0.50;0.40;;;-2.80;99.90;;;;;;5085628;28;20265;-82
2022/11/20 01:11:46;;;;;;;0.93;0.93;;;-2.70;99.90;;;;;;5084776;28;20204;-82
2022/11/20 01:14:16;;;;;;;1.13;1.13;;;-2.60;99.90;;;;;;5084875;28;20226;-82
2022/11/20 01:16:45;;;;;;;0.50;0.50;;;-2.60;99.90;;;;;;5082662;28;20599;-83
2022/11/20 01:19:13;;;;;;;0.50;0.50;;;-2.50;99.90;;;;;;5084209;28;20197;-81
2022/11/20 01:21:43;;;;;;;11.10;9.00;;;-2.50;99.90;;;;;;5084603;28;20257;-84
2022/11/20 01:24:13;;;;;;;0.50;0.40;;;-2.40;99.90;;;;;;5084227;28;20296;-81
2022/11/20 01:26:42;;;;;;;0.50;0.40;;;-2.40;99.90;;;;;;5084651;28;20214;-81
2022/11/20 01:29:14;;;;;;;0.50;0.40;;;-2.50;99.90;;;;;;5084639;28;20201;-84
2022/11/20 01:31:42;;;;;;;0.50;0.50;;;-2.50;99.90;;;;;;5084487;28;20201;-79
2022/11/20 01:34:12;;;;;;;0.50;0.50;;;-2.50;99.90;;;;;;5083940;28;20271;-81
2022/11/20 01:36:41;;;;;;;0.70;0.70;;;-2.50;99.90;;;;;;5083842;28;20574;-84
2022/11/20 01:39:12;;;;;;;1.60;1.35;;;-2.40;99.90;;;;;;5084464;28;20638;-82
2022/11/20 01:45:16;;;;;;;0.50;0.50;;;-2.40;99.90;;;;;;5041560;28;20187;-84
2022/11/20 01:47:47;;;;;;;0.82;0.82;;;-2.50;99.90;;;;;;5030354;28;20653;-81
2022/11/20 01:50:17;;;;;;;2.65;2.45;;;-2.60;99.90;;;;;;5072350;28;20252;-81
2022/11/20 01:52:49;;;;;;;20.45;15.82;;;-2.60;99.90;;;;;;5084304;28;20224;-81
2022/11/20 01:55:22;;;;;;;0.50;0.40;;;-2.50;99.90;;;;;;5083204;28;20213;-81
2022/11/20 01:57:50;;;;;;;0.50;0.50;;;-2.60;99.90;;;;;;5084077;28;20200;-83
2022/11/20 02:00:19;;;;;;;0.50;0.40;;;-2.60;99.90;;;;;;5084727;28;20198;-83
2022/11/20 02:02:51;;;;;;;0.50;0.40;;;-2.70;99.90;;;;;;5085231;28;20223;-82
2022/11/20 02:05:24;;;;;;;3.55;3.25;;;-2.70;99.90;;;;;;5082887;28;20278;-81
2022/11/20 02:07:51;;;;;;;0.50;0.50;;;-2.80;99.90;;;;;;5083956;28;20513;-82
2022/11/20 02:10:18;;;;;;;0.50;0.40;;;-2.80;99.90;;;;;;5084706;28;20671;-81
2022/11/20 02:15:30;;;;;;;0.70;0.70;;;-2.70;99.90;;;;;;5081881;28;20215;-81
2022/11/20 02:17:58;;;;;;;1.02;1.02;;;-2.50;99.90;;;;;;5083108;28;20236;-82
2022/11/20 02:20:25;;;;;;;0.50;0.40;;;-2.30;99.90;;;;;;5082486;28;20655;-83
2022/11/20 02:22:57;;;;;;;0.50;0.40;;;-2.20;99.90;;;;;;5083150;28;20415;-81
2022/11/20 02:25:27;;;;;;;3.53;2.88;;;-2.20;99.90;;;;;;5082096;28;20321;-82
2022/11/20 02:27:53;;;;;;;1.80;1.70;;;-2.10;99.90;;;;;;5083151;28;20192;-81
2022/11/20 02:30:20;;;;;;;1.30;1.30;;;-2.00;99.90;;;;;;5084465;28;20204;-81
2022/11/20 02:32:47;;;;;;;0.50;0.50;;;-1.90;99.90;;;;;;5083288;28;20257;-81
2022/11/20 02:35:40;;;;;;;0.50;0.50;;;-1.90;99.90;;;;;;5082560;28;20218;-82
2022/11/20 02:38:07;;;;;;;0.50;0.47;;;-1.80;99.90;;;;;;5083071;28;20215;-81
2022/11/20 02:40:35;;;;;;;0.50;0.40;;;-1.80;99.90;;;;;;5083924;28;20266;-82
2022/11/20 02:43:02;;;;;;;0.50;0.40;;;-1.70;99.90;;;;;;5083969;28;20265;-83
2022/11/20 02:45:29;;;;;;;1.83;1.73;;;-1.60;99.90;;;;;;5082511;28;20294;-82
2022/11/20 02:47:56;;;;;;;0.50;0.50;;;-1.50;99.90;;;;;;5083119;28;20288;-83
2022/11/20 02:50:22;;;;;;;0.70;0.70;;;-1.40;99.90;;;;;;5083033;28;20232;-81
2022/11/20 02:52:49;;;;;;;0.88;0.88;;;-1.30;99.90;;;;;;5084249;28;20679;-83
2022/11/20 02:55:16;;;;;;;0.50;0.40;;;-1.30;99.90;;;;;;5081860;28;20232;-82
2022/11/20 02:57:44;;;;;;;1.13;1.13;;;-1.30;99.90;;;;;;5083355;28;20245;-81
2022/11/20 03:00:12;;;;;;;0.50;0.47;;;-1.30;99.90;;;;;;5083762;28;20287;-81
2022/11/20 03:02:39;;;;;;;0.50;0.40;;;-1.40;99.90;;;;;;5083281;28;20286;-81
2022/11/20 03:05:06;;;;;;;0.50;0.40;;;-1.30;99.90;;;;;;5081917;28;20726;-79
2022/11/20 03:07:33;;;;;;;0.50;0.50;;;-1.30;99.90;;;;;;5082012;28;20228;-82
2022/11/20 03:10:00;;;;;;;0.65;0.63;;;-1.20;99.90;;;;;;5083014;28;20289;-83
2022/11/20 03:12:27;;;;;;;0.50;0.50;;;-1.10;99.90;;;;;;5083092;28;20511;-82
2022/11/20 03:14:55;;;;;;;0.50;0.40;;;-1.10;99.90;;;;;;5079749;28;20324;-82
2022/11/20 03:17:22;;;;;;;0.73;0.73;;;-1.00;99.90;;;;;;5082425;28;20300;-83
2022/11/20 03:19:48;;;;;;;0.50;0.50;;;-1.00;99.90;;;;;;5082408;28;20667;-81
2022/11/20 03:22:15;;;;;;;0.50;0.40;;;-1.00;99.90;;;;;;5082131;28;20293;-82
2022/11/20 03:24:42;;;;;;;2.78;2.47;;;-0.90;99.90;;;;;;5085128;28;20256;-82
2022/11/20 03:27:09;;;;;;;0.50;0.47;;;-1.00;99.90;;;;;;5086800;28;20257;-82
2022/11/20 03:29:36;;;;;;;2.35;2.25;;;-1.00;99.90;;;;;;5087435;28;20200;-81
2022/11/20 03:32:04;;;;;;;0.93;0.93;;;-1.00;99.90;;;;;;5087265;28;20260;-82
2022/11/20 03:34:31;;;;;;;0.50;0.40;;;-1.00;99.90;;;;;;5086878;28;20229;-81
2022/11/20 03:36:58;;;;;;;1.63;1.55;;;-0.90;99.90;;;;;;5087895;28;20303;-81
2022/11/20 03:39:25;;;;;;;0.50;0.40;;;-0.90;99.90;;;;;;5086560;28;20294;-82
2022/11/20 03:41:51;;;;;;;1.10;1.10;;;-0.90;99.90;;;;;;5085777;28;20189;-83
2022/11/20 03:44:21;;;;;;;1.90;1.58;;;-0.80;99.90;;;;;;5086040;28;20620;-81
2022/11/20 03:46:48;;;;;;;0.60;0.60;;;-0.80;99.90;;;;;;5086253;28;20297;-83
2022/11/20 03:49:16;;;;;;;1.60;1.50;;;-0.90;99.90;;;;;;5086126;28;20216;-80
2022/11/20 03:51:43;;;;;;;0.50;0.40;;;-0.80;99.90;;;;;;5086485;28;20268;-78
2022/11/20 03:54:10;;;;;;;1.10;1.10;;;-0.80;99.90;;;;;;5085282;28;20204;-83
2022/11/20 03:56:39;;;;;;;0.50;0.50;;;-0.80;99.90;;;;;;5086106;28;20242;-81
2022/11/20 03:59:06;;;;;;;0.50;0.50;;;-0.80;99.90;;;;;;5088180;28;20208;-82
2022/11/20 04:01:35;;;;;;;2.22;2.13;;;-0.90;99.90;;;;;;5088812;28;20273;-82
2022/11/20 04:04:01;;;;;;;0.50;0.40;;;-0.80;99.90;;;;;;5086976;28;20288;-82
2022/11/20 04:06:34;;;;;;;0.50;0.40;;;-0.70;99.90;;;;;;5087377;28;20220;-82
2022/11/20 04:09:01;;;;;;;2.05;1.90;;;-0.80;99.90;;;;;;5087495;28;20180;-82
2022/11/20 04:11:29;;;;;;;2.92;2.65;;;-0.80;99.90;;;;;;5087768;28;20229;-81
2022/11/20 04:13:58;;;;;;;0.50;0.40;;;-0.70;99.90;;;;;;5086317;28;20404;-81
2022/11/20 04:16:26;;;;;;;1.33;1.27;;;-0.60;99.90;;;;;;5085726;28;20249;-79
2022/11/20 04:18:54;;;;;;;1.65;1.55;;;-0.60;99.90;;;;;;5087522;28;20624;-82
2022/11/20 04:21:21;;;;;;;0.50;0.40;;;-0.60;99.90;;;;;;5087281;28;20201;-81
2022/11/20 04:23:49;;;;;;;0.50;0.50;;;-0.70;99.90;;;;;;5086640;28;20357;-83
2022/11/20 04:26:16;;;;;;;0.98;0.98;;;-0.70;99.90;;;;;;5085619;28;20222;-84
2022/11/20 04:28:43;;;;;;;0.77;0.75;;;-0.70;99.90;;;;;;5085995;28;20264;-82
2022/11/20 04:31:13;;;;;;;0.60;0.60;;;-0.60;99.90;;;;;;5086060;28;20220;-82
2022/11/20 04:33:41;;;;;;;0.60;0.50;;;-0.50;99.90;;;;;;5086669;28;20293;-82
2022/11/20 04:36:11;;;;;;;0.50;0.40;;;-0.40;99.90;;;;;;5085666;28;20243;-82
2022/11/20 04:38:38;;;;;;;3.90;2.55;;;-0.40;99.90;;;;;;5086529;28;20247;-79
2022/11/20 04:41:08;;;;;;;0.50;0.50;;;-0.40;99.90;;;;;;5086206;28;20292;-82
2022/11/20 04:43:35;;;;;;;0.50;0.47;;;-0.50;99.90;;;;;;5085169;28;20330;-81
2022/11/20 04:46:02;;;;;;;0.50;0.40;;;-0.60;99.90;;;;;;5085018;28;20591;-83
2022/11/20 04:48:30;;;;;;;0.50;0.40;;;-0.70;99.90;;;;;;5086668;28;20745;-82
2022/11/20 04:50:57;;;;;;;0.70;0.70;;;-0.80;99.90;;;;;;5085281;28;20729;-83
2022/11/20 04:53:24;;;;;;;0.50;0.40;;;-0.80;99.90;;;;;;5085638;28;20222;-82
2022/11/20 04:55:51;;;;;;;0.50;0.50;;;-0.90;99.90;;;;;;5085097;28;20212;-81
2022/11/20 04:58:19;;;;;;;0.82;0.82;;;-0.90;99.90;;;;;;5085355;28;20213;-82
2022/11/20 05:00:46;;;;;;;2.60;2.40;;;-0.90;99.90;;;;;;5085575;28;20399;-82
2022/11/20 05:03:13;;;;;;;1.50;1.48;;;-0.80;99.90;;;;;;5085705;28;20233;-83
2022/11/20 05:05:40;;;;;;;4.13;3.80;;;-0.80;99.90;;;;;;5084170;28;20220;-80
2022/11/20 05:08:06;;;;;;;1.50;1.40;;;-0.70;99.90;;;;;;5086373;28;20216;-81
2022/11/20 05:10:33;;;;;;;0.50;0.50;;;-0.70;99.90;;;;;;5084512;28;20202;-82
2022/11/20 05:13:00;;;;;;;0.50;0.40;;;-0.60;99.90;;;;;;5086047;28;20199;-81
2022/11/20 05:15:28;;;;;;;2.40;2.28;;;-0.50;99.90;;;;;;5084026;28;20682;-83
2022/11/20 05:17:55;;;;;;;3.90;3.70;;;-0.50;99.90;;;;;;5085287;28;20213;-83
2022/11/20 05:20:22;;;;;;;0.50;0.50;;;-0.40;99.90;;;;;;5086337;28;20199;-82
2022/11/20 05:22:48;;;;;;;0.50;0.40;;;-0.40;99.90;;;;;;5085670;28;20201;-83
2022/11/20 05:25:15;;;;;;;1.20;1.20;;;-0.40;99.90;;;;;;5083875;28;20246;-81
2022/11/20 05:27:42;;;;;;;0.50;0.40;;;-0.40;99.90;;;;;;5085481;28;20207;-81
2022/11/20 05:30:10;;;;;;;0.50;0.40;;;-0.40;99.90;;;;;;5085003;28;20203;-83
2022/11/20 05:32:38;;;;;;;0.50;0.45;;;-0.40;99.90;;;;;;5085149;28;20295;-84
2022/11/20 05:35:06;;;;;;;0.50;0.50;;;-0.30;99.90;;;;;;5083944;28;20727;-81
2022/11/20 05:37:33;;;;;;;0.50;0.40;;;-0.30;99.90;;;;;;5084802;28;20213;-82
2022/11/20 05:40:00;;;;;;;0.50;0.40;;;-0.30;99.90;;;;;;5084433;28;20702;-81
2022/11/20 05:42:32;;;;;;;1.25;1.15;;;-0.30;99.90;;;;;;5084273;28;20282;-81
2022/11/20 05:45:00;;;;;;;2.03;1.90;;;-0.20;99.90;;;;;;5084244;28;20303;-83
2022/11/20 05:47:27;;;;;;;0.60;0.50;;;-0.20;99.90;;;;;;5084396;28;20686;-82
2022/11/20 05:49:55;;;;;;;0.77;0.77;;;-0.10;99.90;;;;;;5083687;28;20259;-83
2022/11/20 05:52:22;;;;;;;0.70;0.70;;;-0.10;99.90;;;;;;5084396;28;20265;-84
2022/11/20 05:54:49;;;;;;;0.52;0.45;;;0.00;99.90;;;;;;5084256;28;20299;-81
2022/11/20 05:57:15;;;;;;;0.50;0.47;;;0.00;99.90;;;;;;5084588;28;20217;-81
2022/11/20 05:59:43;;;;;;;0.50;0.40;;;0.00;99.90;;;;;;5086727;28;20719;-80
2022/11/20 06:02:09;;;;;;;0.90;0.90;;;0.00;99.90;;;;;;5085533;28;20221;-82
2022/11/20 06:04:36;;;;;;;0.50;0.50;;;0.00;99.90;;;;;;5083385;28;20268;-82
2022/11/20 06:07:05;;;;;;;0.50;0.40;;;-0.10;99.90;;;;;;5084086;28;20204;-83
2022/11/20 06:09:32;;;;;;;0.60;0.60;;;0.00;99.90;;;;;;5085341;28;20260;-81
2022/11/20 06:11:59;;;;;;;0.50;0.40;;;0.00;99.90;;;;;;5083403;28;20285;-84
2022/11/20 06:14:26;;;;;;;0.50;0.45;;;0.00;99.90;;;;;;5083454;28;20223;-83
2022/11/20 06:16:53;;;;;;;0.50;0.40;;;0.00;99.90;;;;;;5082371;28;20216;-83
2022/11/20 06:19:19;;;;;;;0.50;0.50;;;-0.10;99.90;;;;;;5084353;28;20259;-83
2022/11/20 06:21:48;;;;;;;0.50;0.43;;;-0.10;99.90;;;;;;5084726;28;20199;-83
2022/11/20 06:24:17;;;;;;;0.50;0.40;;;-0.10;99.90;;;;;;5084180;28;20220;-84
2022/11/20 06:26:44;;;;;;;0.50;0.50;;;-0.10;99.90;;;;;;5083681;28;20293;-82
2022/11/20 06:29:11;;;;;;;0.50;0.40;;;-0.10;99.90;;;;;;5084370;28;20197;-83
2022/11/20 06:31:38;;;;;;;0.50;0.50;;;-0.10;99.90;;;;;;5084204;28;20205;-83
2022/11/20 06:34:05;;;;;;;0.50;0.50;;;0.00;99.90;;;;;;5082533;28;20199;-82
2022/11/20 06:36:33;;;;;;;0.50;0.50;;;0.00;99.90;;;;;;5083382;28;20290;-83
2022/11/20 06:39:00;;;;;;;0.50;0.40;;;-0.10;99.90;;;;;;5083165;28;20251;-83
2022/11/20 06:41:28;;;;;;;0.50;0.40;;;-0.10;99.90;;;;;;5083339;28;20221;-83
2022/11/20 06:43:56;;;;;;;0.50;0.40;;;-0.10;99.90;;;;;;5082980;28;20192;-82
2022/11/20 06:46:23;;;;;;;0.50;0.50;;;-0.20;99.90;;;;;;5084108;28;20248;-83
2022/11/20 06:48:50;;;;;;;1.23;1.23;;;-0.20;99.90;;;;;;5082952;28;20294;-83
2022/11/20 06:51:18;;;;;;;0.80;0.80;;;-0.20;99.90;;;;;;5080207;28;20567;-80
2022/11/20 06:53:44;;;;;;;0.50;0.40;;;-0.30;99.90;;;;;;5075050;28;20203;-79
2022/11/20 06:56:11;;;;;;;3.08;2.88;;;-0.40;99.90;;;;;;5074395;28;20214;-81
2022/11/20 06:58:39;;;;;;;0.50;0.47;;;-0.40;99.90;;;;;;5074542;28;20218;-82
2022/11/20 07:01:08;;;;;;;0.60;0.60;;;-0.50;99.90;;;;;;5075234;28;20208;-81
2022/11/20 07:03:35;;;;;;;0.50;0.40;;;-0.50;99.90;;;;;;5074603;28;20297;-80
2022/11/20 07:06:03;;;;;;;0.50;0.45;;;-0.50;99.90;;;;;;5073937;28;20216;-80
2022/11/20 07:08:31;;;;;;;0.85;0.85;;;-0.60;99.90;;;;;;5074186;28;20191;-80
2022/11/20 07:10:59;;;;;;;0.50;0.40;;;-0.50;99.90;;;;;;5074807;28;20776;-81
2022/11/20 07:13:26;;;;;;;0.50;0.40;;;-0.50;99.90;;;;;;5076319;28;20197;-81
2022/11/20 07:15:54;;;;;;;0.98;0.98;;;-0.50;99.90;;;;;;5083803;28;20216;-81
2022/11/20 07:18:21;;;;;;;0.50;0.40;;;-0.50;99.90;;;;;;5087358;28;20258;-83
2022/11/20 07:20:48;;;;;;;0.50;0.50;;;-0.40;99.90;;;;;;5089533;28;20201;-83
2022/11/20 07:23:15;;;;;;;3.17;3.08;;;-0.30;99.90;;;;;;5081450;28;20195;-79
2022/11/20 07:25:41;;;;;;;0.50;0.40;;;-0.20;99.90;;;;;;5074473;28;20272;-81
2022/11/20 07:28:10;;;;;;;0.50;0.40;;;0.00;99.90;;;;;;5075325;28;20262;-82
2022/11/20 07:30:37;;;;;;;0.60;0.60;;;0.00;99.90;;;;;;5075049;28;20240;-81
2022/11/20 07:33:06;;;;;;;0.50;0.40;;;0.10;99.90;;;;;;5074184;28;20457;-80
2022/11/20 07:35:32;;;;;;;0.50;0.40;;;0.20;99.90;;;;;;5074038;28;20245;-82
2022/11/20 07:37:59;;;;;;;0.50;0.50;;;0.30;99.90;;;;;;5075068;28;20241;-80
2022/11/20 07:40:26;;;;;;;0.50;0.40;;;0.40;99.90;;;;;;5079718;28;20194;-80
2022/11/20 07:42:54;;;;;;;0.50;0.40;;;0.50;99.90;;;;;;5085149;28;20295;-80
2022/11/20 07:45:23;;;;;;;0.50;0.40;;;0.60;99.90;;;;;;5076618;28;20493;-81
2022/11/20 07:47:50;;;;;;;1.58;1.58;;;0.70;99.90;;;;;;5074766;28;20224;-82
2022/11/20 07:50:18;;;;;;;0.50;0.40;;;0.80;99.90;;;;;;5074143;28;20200;-81
2022/11/20 07:52:45;;;;;;;0.50;0.50;;;0.80;99.90;;;;;;5074519;28;20201;-79
2022/11/20 07:55:12;;;;;;;0.50;0.40;;;0.90;99.90;;;;;;5073506;28;20224;-81
2022/11/20 07:57:39;;;;;;;0.88;0.88;;;1.00;99.90;;;;;;5074667;28;20201;-77
2022/11/20 08:00:09;;;;;;;0.98;0.98;;;1.10;99.90;;;;;;5075107;28;20525;-81
2022/11/20 08:02:38;;;;;;;0.57;0.55;;;1.00;99.90;;;;;;5074214;28;20178;-82
2022/11/20 08:05:06;;;;;;;0.50;0.40;;;1.10;99.90;;;;;;5073333;28;20304;-81
2022/11/20 08:07:38;;;;;;;0.50;0.40;;;1.50;99.90;;;;;;5073793;28;20552;-81
2022/11/20 08:10:06;;;;;;;0.50;0.40;;;1.90;99.90;;;;;;5076054;28;20211;-81
2022/11/20 08:15:17;;;;;;;1.50;1.40;;;3.30;99.90;;;;;;5076062;28;20217;-82
2022/11/20 08:17:44;;;;;;;0.50;0.50;;;4.40;99.90;;;;;;5079012;28;20190;-82
2022/11/20 08:20:11;;;;;;;0.50;0.40;;;5.30;99.90;;;;;;5078360;28;20220;-81
2022/11/20 08:22:39;;;;;;;0.50;0.40;;;5.60;99.90;;;;;;5077682;28;20220;-82
2022/11/20 08:25:07;;;;;;;0.85;0.85;;;5.60;99.90;;;;;;5077475;28;20228;-82
2022/11/20 08:27:34;;;;;;;0.50;0.40;;;5.50;99.90;;;;;;5078457;28;20199;-84
2022/11/20 08:30:00;;;;;;;0.50;0.40;;;5.40;99.90;;;;;;5078169;28;20291;-82
2022/11/20 08:32:27;;;;;;;0.50;0.40;;;5.50;99.90;;;;;;5077909;28;20201;-82
2022/11/20 08:34:54;;;;;;;0.50;0.40;;;5.80;99.90;;;;;;5077167;28;20658;-81
2022/11/20 08:37:21;;;;;;;0.80;0.80;;;6.10;99.90;;;;;;5077747;28;20567;-81
2022/11/20 08:39:49;;;;;;;1.90;1.80;;;6.10;99.90;;;;;;5077868;28;20244;-83
2022/11/20 08:42:16;;;;;;;0.50;0.40;;;6.00;99.90;;;;;;5077493;28;20284;-81
2022/11/20 08:44:42;;;;;;;25.08;23.30;;;5.70;99.90;;;;;;5077117;28;20194;-81
2022/11/20 08:47:09;;;;;;;0.50;0.40;;;5.40;99.90;;;;;;5078029;28;20198;-82
2022/11/20 08:49:36;;;;;;;0.65;0.65;;;5.20;99.90;;;;;;5079268;28;20197;-81
2022/11/20 08:52:03;;;;;;;0.50;0.40;;;5.00;99.90;;;;;;5078119;28;20194;-82
2022/11/20 08:54:30;;;;;;;0.50;0.50;;;4.80;99.90;;;;;;5076835;28;20316;-83
2022/11/20 08:56:58;;;;;;;0.50;0.40;;;4.70;99.90;;;;;;5077122;28;20218;-82
2022/11/20 08:59:25;;;;;;;0.50;0.40;;;4.70;99.90;;;;;;5078607;28;20580;-82
2022/11/20 09:01:51;;;;;;;0.50;0.40;;;4.60;99.90;;;;;;5078025;28;20196;-82
2022/11/20 09:04:18;;;;;;;0.68;0.68;;;4.60;99.90;;;;;;5076149;28;20771;-84
2022/11/20 09:06:45;;;;;;;0.60;0.60;;;4.60;99.90;;;;;;5078417;28;20269;-80
2022/11/20 09:09:12;;;;;;;0.70;0.70;;;4.40;99.90;;;;;;5078762;28;20204;-82
2022/11/20 09:11:39;;;;;;;0.60;0.40;;;4.40;99.90;;;;;;5079290;28;20281;-81
2022/11/20 09:14:07;;;;;;;0.50;0.40;;;4.40;99.90;;;;;;5078062;28;20204;-83
2022/11/20 09:16:34;;;;;;;0.50;0.50;;;4.40;99.90;;;;;;5077664;28;20771;-81
2022/11/20 09:19:01;;;;;;;3.40;1.15;;;4.50;99.90;;;;;;5077784;28;20216;-80
2022/11/20 09:21:27;;;;;;;0.95;0.95;;;4.50;99.90;;;;;;5078298;28;20197;-82
2022/11/20 09:23:54;;;;;;;0.50;0.40;;;4.60;99.90;;;;;;5077851;28;20201;-79
2022/11/20 09:26:21;;;;;;;0.70;0.70;;;4.80;99.90;;;;;;5078014;28;20218;-81
2022/11/20 09:28:48;;;;;;;0.50;0.40;;;5.00;99.90;;;;;;5077294;28;20281;-83
2022/11/20 09:31:22;;;;;;;1.17;1.08;;;5.30;99.90;;;;;;5077995;28;20202;-82
2022/11/20 09:33:49;;;;;;;0.50;0.40;;;5.90;99.90;;;;;;5077247;28;20187;-78
2022/11/20 09:36:18;;;;;;;30.35;2.35;;;6.30;99.90;;;;;;5077783;28;20217;-82
2022/11/20 09:38:45;;;;;;;0.50;0.50;;;6.40;99.90;;;;;;5077227;28;20626;-82
2022/11/20 09:41:29;;;;;;;3.15;2.90;;;6.50;99.90;;;;;;5077995;28;20194;-82
2022/11/20 09:44:02;;;;;;;0.75;0.75;;;6.50;99.90;;;;;;5076901;28;20205;-81
2022/11/20 09:46:36;;;;;;;4.30;2.28;;;6.50;99.90;;;;;;5077811;28;20659;-83
2022/11/20 09:49:21;;;;;;;1.35;0.82;;;6.60;99.90;;;;;;5076803;28;20177;-80
2022/11/20 09:51:58;;;;;;;7.05;6.38;;;6.80;99.90;;;;;;5077724;28;20283;-81
2022/11/20 09:54:30;;;;;;;1.45;1.35;;;7.00;99.90;;;;;;5075923;28;20185;-80
2022/11/20 09:57:01;;;;;;;1.13;1.13;;;7.10;99.90;;;;;;5076685;28;20217;-82
2022/11/20 09:59:39;;;;;;;1.50;1.40;;;7.50;99.90;;;;;;5077290;28;20216;-81
2022/11/20 10:02:17;;;;;;;2.45;1.73;;;7.80;99.90;;;;;;5076196;28;20699;-81
2022/11/20 10:04:48;;;;;;;6.82;2.78;;;7.50;99.90;;;;;;5076146;28;20247;-81
2022/11/20 10:07:20;;;;;;;1.40;1.25;;;7.20;99.90;;;;;;5075905;28;20660;-82
2022/11/20 10:09:53;;;;;;;1.60;1.13;;;6.70;99.90;;;;;;5076508;28;20280;-82
2022/11/20 10:12:26;;;;;;;0.50;0.40;;;6.50;99.90;;;;;;5076397;28;20182;-82
2022/11/20 10:15:28;;;;;;;3.15;2.95;;;6.40;99.90;;;;;;5074256;28;20215;-81
2022/11/20 10:18:10;;;;;;;0.50;0.40;;;6.50;99.90;;;;;;5076271;28;20244;-81
2022/11/20 10:20:47;;;;;;;2.63;2.42;;;6.40;99.90;;;;;;5076461;28;20205;-81
2022/11/20 10:23:31;;;;;;;4.63;1.55;;;6.50;99.90;;;;;;5076256;28;20280;-82
2022/11/20 10:26:03;;;;;;;3.00;2.83;;;6.50;99.90;;;;;;5075330;28;20225;-81
2022/11/20 10:28:49;;;;;;;0.88;0.88;;;6.40;99.90;;;;;;5075877;28;20293;-81
2022/11/20 10:31:27;;;;;;;3.60;1.80;;;6.30;99.90;;;;;;5076271;28;20204;-81
2022/11/20 10:33:57;;;;;;;3.47;3.20;;;6.20;99.90;;;;;;5074156;28;20196;-82
2022/11/20 10:36:27;;;;;;;2.97;2.85;;;6.10;99.90;;;;;;5076322;28;20216;-83
2022/11/20 10:38:59;;;;;;;0.50;0.40;;;6.20;99.90;;;;;;5075717;28;20224;-80
2022/11/20 10:41:29;;;;;;;2.45;2.35;;;6.20;99.90;;;;;;5075093;28;20181;-80
2022/11/20 10:44:04;;;;;;;0.50;0.40;;;6.40;99.90;;;;;;5074615;28;20233;-81
2022/11/20 10:46:38;;;;;;;0.50;0.50;;;6.40;99.90;;;;;;5075579;28;20212;-81
2022/11/20 10:49:14;;;;;;;0.50;0.50;;;6.60;99.90;;;;;;5075425;28;20173;-80
2022/11/20 10:51:56;;;;;;;2.63;1.73;;;6.70;99.90;;;;;;5075200;28;20181;-81
2022/11/20 10:54:32;;;;;;;8.32;4.30;;;6.70;99.90;;;;;;5075555;28;20188;-80
2022/11/20 10:57:08;;;;;;;3.65;2.75;;;6.30;99.90;;;;;;5076113;28;20228;-81
2022/11/20 10:59:53;;;;;;;0.60;0.60;;;6.00;99.90;;;;;;5076061;28;20624;-81
2022/11/20 11:02:22;;;;;;;1.27;1.10;;;5.80;99.90;;;;;;5075649;28;20184;-81
2022/11/20 11:04:51;;;;;;;1.77;1.60;;;5.70;99.90;;;;;;5075124;28;20289;-82
2022/11/20 11:07:22;;;;;;;0.82;0.82;;;5.60;99.90;;;;;;5068004;28;20240;-81
2022/11/20 11:09:51;;;;;;;0.90;0.90;;;5.60;99.90;;;;;;5075231;28;20627;-81
2022/11/20 11:12:18;;;;;;;0.65;0.63;;;5.70;99.90;;;;;;5075185;28;20268;-81
2022/11/20 11:14:47;;;;;;;2.70;1.80;;;5.90;99.90;;;;;;5072917;28;20285;-83
2022/11/20 11:17:29;;;;;;;4.47;4.10;;;5.90;99.90;;;;;;5075582;28;20566;-82
2022/11/20 11:20:16;;;;;;;1.83;1.73;;;5.90;99.90;;;;;;5075839;28;20201;-82
2022/11/20 11:22:45;;;;;;;0.50;0.40;;;6.00;99.90;;;;;;5075505;28;20190;-81
2022/11/20 11:25:24;;;;;;;0.50;0.40;;;6.10;99.90;;;;;;5073756;28;20229;-82
2022/11/20 11:27:53;;;;;;;2.58;2.47;;;6.30;99.90;;;;;;5074720;28;20203;-81
2022/11/20 11:30:21;;;;;;;0.50;0.45;;;6.40;99.90;;;;;;5075167;28;20766;-81
2022/11/20 11:32:48;;;;;;;3.60;3.35;;;6.40;99.90;;;;;;5074803;28;20196;-79
2022/11/20 11:35:28;;;;;;;1.85;1.25;;;6.30;99.90;;;;;;5074479;28;20221;-81
2022/11/20 11:38:05;;;;;;;0.50;0.40;;;6.10;99.90;;;;;;5075462;28;20264;-81
2022/11/20 11:40:34;;;;;;;0.50;0.40;;;6.00;99.90;;;;;;5074648;28;20681;-81
2022/11/20 11:43:03;;;;;;;1.30;1.20;;;6.00;99.90;;;;;;5074497;28;20197;-82
2022/11/20 11:45:29;;;;;;;2.15;2.05;;;5.90;99.90;;;;;;5077196;28;20267;-80
2022/11/20 11:47:59;;;;;;;4.00;1.80;;;5.80;99.90;;;;;;5078756;28;20192;-81
2022/11/20 11:50:28;;;;;;;0.50;0.40;;;5.80;99.90;;;;;;5078930;28;20454;-79
2022/11/20 11:53:03;;;;;;;0.50;0.40;;;5.80;99.90;;;;;;5078133;28;20472;-81
2022/11/20 11:55:34;;;;;;;1.85;1.75;;;5.90;99.90;;;;;;5077548;28;20221;-82
2022/11/20 11:58:12;;;;;;;1.38;1.35;;;5.90;99.90;;;;;;5081570;28;20227;-79
2022/11/20 12:00:42;;;;;;;1.20;1.15;;;5.90;99.90;;;;;;5081004;28;20286;-81
2022/11/20 12:03:17;;;;;;;1.15;0.98;;;6.00;99.90;;;;;;5079119;28;20200;-82
2022/11/20 12:05:48;;;;;;;0.50;0.40;;;5.90;99.90;;;;;;5078026;28;20712;-82
2022/11/20 12:08:22;;;;;;;20.33;9.20;;;5.90;99.90;;;;;;5078450;28;20181;-82
2022/11/20 12:10:54;;;;;;;0.93;0.93;;;5.80;99.90;;;;;;5077983;28;20603;-81
2022/11/20 12:13:37;;;;;;;1.35;0.70;;;5.70;99.90;;;;;;5072300;28;20284;-82
2022/11/20 12:16:05;;;;;;;0.50;0.40;;;5.60;99.90;;;;;;5076463;28;20213;-82
2022/11/20 12:18:32;;;;;;;0.50;0.40;;;5.60;99.90;;;;;;5078384;28;20284;-81
2022/11/20 12:21:17;;;;;;;0.50;0.40;;;5.60;99.90;;;;;;5077820;28;20214;-80
2022/11/20 12:23:54;;;;;;;0.50;0.40;;;5.50;99.90;;;;;;5079167;28;20517;-78
2022/11/20 12:26:45;;;;;;;0.50;0.40;;;5.40;99.90;;;;;;5078689;28;20610;-80
2022/11/20 12:29:18;;;;;;;2.58;2.35;;;5.30;99.90;;;;;;5080159;28;20261;-81
2022/11/20 12:32:07;;;;;;;0.52;0.50;;;5.30;99.90;;;;;;5078704;28;20245;-80
2022/11/20 12:34:48;;;;;;;0.50;0.40;;;5.30;99.90;;;;;;5077572;28;20582;-83
2022/11/20 12:37:31;;;;;;;1.90;1.25;;;5.30;99.90;;;;;;5078915;28;20197;-81
2022/11/20 12:40:02;;;;;;;1.83;1.48;;;5.30;99.90;;;;;;5078130;28;20198;-80
2022/11/20 12:46:19;;;;;;;0.60;0.50;;;5.20;99.90;;;;;;5076880;28;20221;-78
2022/11/20 12:49:03;;;;;;;1.70;0.95;;;5.10;99.90;;;;;;5077371;28;20197;-82
2022/11/20 12:51:41;;;;;;;0.50;0.40;;;5.10;99.90;;;;;;5077682;28;20197;-81
2022/11/20 12:54:35;;;;;;;15.45;14.25;;;5.00;99.90;;;;;;5076657;28;20584;-81
2022/11/20 12:57:09;;;;;;;2.00;1.15;;;5.10;99.90;;;;;;5076420;28;20183;-81
2022/11/20 12:59:57;;;;;;;1.80;1.70;;;5.20;99.90;;;;;;5077983;28;20202;-81
2022/11/20 13:02:31;;;;;;;1.50;1.40;;;5.20;99.90;;;;;;5077498;28;20272;-84
2022/11/20 13:05:20;;;;;;;0.60;0.60;;;5.00;99.90;;;;;;5077105;28;20230;-81
2022/11/20 13:07:48;;;;;;;0.60;0.60;;;5.00;99.90;;;;;;5077167;28;20292;-81
2022/11/20 13:10:22;;;;;;;2.17;0.73;;;5.10;99.90;;;;;;5077070;28;20195;-81
2022/11/20 13:12:56;;;;;;;5.35;5.00;;;5.10;99.90;;;;;;5077825;28;20641;-78
2022/11/20 13:15:34;;;;;;;1.77;1.25;;;5.20;99.90;;;;;;5075356;28;20217;-82